메인 페이지
METAR-TAF:

METAR-TAF

공항 :

칭다오 류팅 국제공항

칭다오, 중국

위도: 36-04N, 경도: 120-20E, 고도: 77m

현재 날씨관측

예보는 22분 전, 00:00시(UTC)에 발표되었습니다.
북북서4kt
온도 16°C
습도 94%
기압 1012 hPa
시정: 2500m
고도 500ft 상공 구름 많음
고도 2000ft 상공 흐림
약한비, 박무

METAR: ZSQD 220000Z 33002MPS 2500 -RA BR BKN005 OVC020 16/15 Q1012 BECMG TL0100 3000 RA

시각: 08:22 (00:22 UTC)

예보

예보는 3 시간 22분 전, 21:00시(UTC)에 발표되었습니다.
예보 대상 시간: 22일 00시부터 22일 24시까지 (UTC)
남남동6kt
시정: 5000m
고도 1000ft 상공 구름 많음
고도 2300ft 상공 흐림
약한비
일시적
22일 00시부터 22일 06시까지 (UTC)
고도 900ft 상공 구름 많음
고도 2300ft 상공 흐림
소나기
전환 중
22일 04시부터 22일 05시까지 (UTC)
북북서10kt
고도 2000ft 상공 구름 보통

TAF: ZSQD 212100Z 2200/2224 16003MPS 5000 -RA BKN010 OVC023 TX18/2207Z TN11/2220Z TEMPO 2200/2206 SHRA BKN009 OVC023 BECMG 2204/2205 34005MPS SCT020

4,000개 이상의 공항 관측 자료 및 예보 (METAR 및 TAF 보고).

지도상에서 검색 가능한 기상관측소가 노란 점과 빨간 점으로 표시되어 있습니다.

기상관측소 명을 보려면 표시 위로 마우스를 이동하세요.

날씨 관측과 예보를 보려면 클릭하세요.

지도 변경 : 확대하려면 엑스 표시가 있는 녹색 버튼, 축소하려면 빼기 표시가 있는 녹색 버튼, 다음 페이지의 지도를 보려면 녹색 화살표를 클릭하세요.


METAR-TAF: